Time;durP1;ratioP1;P1;durP2;ratioP2;P2;SDS_P1;SDS_P2;PMS_P1;PMS_P2;Temp;Humidity;BMP_temperature;BMP_pressure;BME280_temperature;BME280_humidity;BME280_pressure;Samples;Min_cycle;Max_cycle;Signal;HPM_P1;HPM_P2
2022/06/29 00:01:35;;;;;;;9.77;4.18;;;;;;;14.54;100.00;101536.22;5216876;28;20387;-71
2022/06/29 00:04:05;;;;;;;7.78;3.85;;;;;;;14.49;100.00;101542.13;5221279;28;20036;-71
2022/06/29 00:06:36;;;;;;;8.50;4.25;;;;;;;14.45;100.00;101540.75;5216453;28;20018;-71
2022/06/29 00:09:07;;;;;;;14.00;3.72;;;;;;;14.42;100.00;101532.19;5205642;28;20044;-70
2022/06/29 00:11:37;;;;;;;8.40;4.20;;;;;;;14.43;100.00;101534.72;5210840;28;20044;-72
2022/06/29 00:14:08;;;;;;;5.55;4.05;;;;;;;14.41;100.00;101525.13;5206676;28;20407;-70
2022/06/29 00:16:38;;;;;;;6.95;3.58;;;;;;;14.41;100.00;101527.81;5218208;28;20496;-71
2022/06/29 00:19:09;;;;;;;14.45;4.25;;;;;;;14.44;100.00;101524.75;5205509;28;20083;-71
2022/06/29 00:21:39;;;;;;;6.43;4.13;;;;;;;14.43;100.00;101521.22;5205260;28;20044;-71
2022/06/29 00:24:10;;;;;;;10.18;4.30;;;;;;;14.42;100.00;101516.00;5212763;28;20029;-71
2022/06/29 00:26:40;;;;;;;7.47;4.53;;;;;;;14.40;100.00;101523.41;5223677;28;20017;-70
2022/06/29 00:29:11;;;;;;;10.27;4.72;;;;;;;14.36;100.00;101522.09;5217017;28;20482;-72
2022/06/29 00:31:41;;;;;;;17.75;5.10;;;;;;;14.30;100.00;101520.91;5225735;28;20041;-71
2022/06/29 00:34:12;;;;;;;7.18;4.03;;;;;;;14.25;100.00;101516.03;5214488;28;20033;-72
2022/06/29 00:36:43;;;;;;;7.03;4.47;;;;;;;14.21;100.00;101506.63;5210109;28;20466;-71
2022/06/29 00:39:14;;;;;;;6.50;4.50;;;;;;;14.19;100.00;101505.09;5225853;28;20247;-72
2022/06/29 00:41:45;;;;;;;10.32;4.20;;;;;;;14.14;100.00;101505.63;5205120;28;20386;-70
2022/06/29 00:44:18;;;;;;;7.63;3.35;;;;;;;14.10;100.00;101511.53;5218127;28;20368;-71
2022/06/29 00:46:52;;;;;;;7.43;3.92;;;;;;;14.11;100.00;101505.16;5213163;28;20021;-71
2022/06/29 00:49:25;;;;;;;7.40;4.53;;;;;;;14.10;100.00;101498.03;5211016;28;20086;-72
2022/06/29 00:52:04;;;;;;;8.02;4.95;;;;;;;14.11;100.00;101495.19;5225035;28;20016;-71
2022/06/29 00:54:38;;;;;;;7.32;4.45;;;;;;;14.08;100.00;101498.22;5225196;28;20032;-71
2022/06/29 00:57:14;;;;;;;4.97;3.83;;;;;;;14.03;100.00;101495.22;5212165;28;20056;-71
2022/06/29 00:59:47;;;;;;;8.88;4.88;;;;;;;14.02;100.00;101495.41;5204974;28;20103;-71
2022/06/29 01:02:21;;;;;;;6.60;4.63;;;;;;;13.96;100.00;101481.59;5220029;28;20028;-71
2022/06/29 01:04:52;;;;;;;7.18;4.40;;;;;;;13.94;100.00;101488.16;5215841;28;20021;-71
2022/06/29 01:07:27;;;;;;;10.55;4.90;;;;;;;13.90;100.00;101487.66;5218532;28;20045;-72
2022/06/29 01:09:58;;;;;;;6.63;4.70;;;;;;;13.86;100.00;101491.72;5216644;28;20414;-72
2022/06/29 01:12:29;;;;;;;7.22;4.60;;;;;;;13.83;100.00;101497.44;5213087;28;20029;-72
2022/06/29 01:15:00;;;;;;;7.63;4.63;;;;;;;13.80;100.00;101488.84;5204100;28;20025;-71
2022/06/29 01:17:31;;;;;;;11.82;5.18;;;;;;;13.76;100.00;101495.63;5224623;28;20086;-71
2022/06/29 01:20:02;;;;;;;7.72;4.68;;;;;;;13.71;100.00;101490.75;5216301;28;20018;-71
2022/06/29 01:22:43;;;;;;;9.30;5.00;;;;;;;13.66;100.00;101493.13;5225069;28;20083;-71
2022/06/29 01:25:15;;;;;;;8.05;4.80;;;;;;;13.64;100.00;101489.72;5207640;28;20442;-71
2022/06/29 01:27:45;;;;;;;9.00;5.22;;;;;;;13.63;100.00;101496.97;5215393;28;20028;-71
2022/06/29 01:30:16;;;;;;;9.23;4.85;;;;;;;13.63;100.00;101499.66;5217926;28;20033;-72
2022/06/29 01:32:46;;;;;;;5.60;4.78;;;;;;;13.61;100.00;101488.22;5217016;28;20021;-71
2022/06/29 01:35:18;;;;;;;9.25;5.22;;;;;;;13.59;100.00;101484.00;5211945;28;20028;-71
2022/06/29 01:37:49;;;;;;;11.30;4.85;;;;;;;13.54;100.00;101489.91;5211531;28;20021;-71
2022/06/29 01:40:21;;;;;;;9.43;5.10;;;;;;;13.51;100.00;101495.66;5217236;28;20021;-71
2022/06/29 01:42:51;;;;;;;9.52;4.47;;;;;;;13.51;100.00;101492.13;5217689;28;20029;-72
2022/06/29 01:45:22;;;;;;;10.07;5.05;;;;;;;13.47;100.00;101481.66;5212979;28;20025;-72
2022/06/29 01:47:53;;;;;;;13.88;5.05;;;;;;;13.46;100.00;101487.22;5220276;28;20066;-72
2022/06/29 01:50:23;;;;;;;10.02;4.78;;;;;;;13.45;100.00;101475.63;5214207;28;20032;-72
2022/06/29 01:52:54;;;;;;;12.40;5.03;;;;;;;13.41;100.00;101485.03;5207464;28;20037;-72
2022/06/29 01:55:25;;;;;;;11.80;4.65;;;;;;;13.38;100.00;101479.97;5203998;28;20099;-72
2022/06/29 01:57:55;;;;;;;9.27;5.53;;;;;;;13.35;100.00;101477.63;5215114;28;20078;-72
2022/06/29 02:00:26;;;;;;;8.40;4.65;;;;;;;13.31;100.00;101472.75;5212454;28;20017;-72
2022/06/29 02:02:57;;;;;;;7.50;4.45;;;;;;;13.30;100.00;101484.53;5216921;28;20040;-71
2022/06/29 02:05:27;;;;;;;9.40;4.10;;;;;;;13.27;100.00;101477.63;5203966;28;20526;-71
2022/06/29 02:07:58;;;;;;;7.93;4.88;;;;;;;13.23;100.00;101468.19;5224957;28;20021;-71
2022/06/29 02:10:30;;;;;;;10.93;5.82;;;;;;;13.20;100.00;101461.28;5223426;28;20059;-71
2022/06/29 02:13:01;;;;;;;9.93;5.20;;;;;;;13.20;100.00;101458.59;5215148;28;20439;-72
2022/06/29 02:15:32;;;;;;;9.43;5.70;;;;;;;13.23;100.00;101460.13;5216702;28;20025;-70
2022/06/29 02:18:03;;;;;;;8.50;5.72;;;;;;;13.25;100.00;101459.94;5214979;28;20035;-71
2022/06/29 02:20:34;;;;;;;8.07;4.78;;;;;;;13.27;100.00;101456.06;5216516;28;20100;-71
2022/06/29 02:23:04;;;;;;;8.45;5.47;;;;;;;13.29;100.00;101455.91;5212159;28;20028;-72
2022/06/29 02:25:35;;;;;;;10.27;5.93;;;;;;;13.27;100.00;101456.06;5214287;28;20029;-72
2022/06/29 02:28:05;;;;;;;10.65;5.43;;;;;;;13.27;100.00;101455.25;5225692;28;20022;-71
2022/06/29 02:36:15;;;;;;;8.15;4.97;;;;;;;13.22;100.00;101447.66;5227575;28;20021;-72
2022/06/29 02:38:45;;;;;;;12.02;5.40;;;;;;;13.20;100.00;101450.50;5228450;28;20406;-71
2022/06/29 02:41:16;;;;;;;14.10;5.30;;;;;;;13.16;100.00;101445.63;5212285;28;20110;-71
2022/06/29 02:43:46;;;;;;;12.45;5.82;;;;;;;13.11;100.00;101443.44;5207756;28;20110;-70
2022/06/29 02:46:17;;;;;;;15.02;5.35;;;;;;;13.09;100.00;101441.88;5208302;28;20013;-72
2022/06/29 02:48:47;;;;;;;13.10;5.30;;;;;;;13.06;100.00;101432.31;5216783;28;20610;-71
2022/06/29 02:51:18;;;;;;;8.75;5.45;;;;;;;13.04;100.00;101439.69;5220710;28;20031;-71
2022/06/29 02:53:48;;;;;;;8.60;4.90;;;;;;;13.03;100.00;101437.19;5207639;28;20017;-71
2022/06/29 02:56:19;;;;;;;9.52;5.25;;;;;;;13.01;100.00;101444.59;5213480;28;20032;-71
2022/06/29 02:58:49;;;;;;;9.23;4.40;;;;;;;12.99;100.00;101431.28;5221338;28;20505;-71
2022/06/29 03:01:20;;;;;;;9.80;5.07;;;;;;;12.96;100.00;101423.56;5214484;28;20058;-71
2022/06/29 03:03:50;;;;;;;11.85;4.95;;;;;;;12.96;100.00;101426.25;5226476;28;20029;-71
2022/06/29 03:06:21;;;;;;;8.52;5.70;;;;;;;12.93;100.00;101421.19;5207932;28;20460;-71
2022/06/29 03:08:51;;;;;;;8.18;5.40;;;;;;;12.90;100.00;101425.06;5207532;28;20497;-71
2022/06/29 03:11:22;;;;;;;13.82;6.60;;;;;;;12.89;100.00;101433.28;5215560;28;20036;-71
2022/06/29 03:13:52;;;;;;;11.23;5.28;;;;;;;12.85;100.00;101427.44;5210411;28;20041;-71
2022/06/29 03:16:23;;;;;;;12.50;5.07;;;;;;;12.81;100.00;101425.22;5217813;28;20033;-71
2022/06/29 03:18:53;;;;;;;12.18;6.25;;;;;;;12.80;100.00;101418.13;5222675;28;20112;-71
2022/06/29 03:21:24;;;;;;;9.32;5.15;;;;;;;12.80;100.00;101412.75;5217201;28;20028;-71
2022/06/29 03:23:55;;;;;;;8.07;5.15;;;;;;;12.80;100.00;101416.31;5206496;28;20108;-71
2022/06/29 03:26:25;;;;;;;8.20;4.70;;;;;;;12.83;100.00;101421.34;5219894;28;20013;-71
2022/06/29 03:28:56;;;;;;;12.65;6.10;;;;;;;12.86;100.00;101414.81;5214417;28;20375;-71
2022/06/29 03:31:26;;;;;;;9.90;4.88;;;;;;;12.88;100.00;101410.91;5212386;28;20029;-71
2022/06/29 03:33:58;;;;;;;9.60;4.50;;;;;;;12.90;100.00;101413.44;5215076;28;20033;-71
2022/06/29 03:36:30;;;;;;;9.85;4.93;;;;;;;12.90;100.00;101411.59;5222656;28;20017;-71
2022/06/29 03:39:00;;;;;;;9.90;5.45;;;;;;;12.90;100.00;101400.84;5206644;28;20037;-72
2022/06/29 03:41:31;;;;;;;12.02;5.47;;;;;;;12.87;100.00;101409.25;5219908;28;20438;-71
2022/06/29 03:44:01;;;;;;;11.45;6.00;;;;;;;12.87;100.00;101403.00;5217010;28;20501;-72
2022/06/29 03:46:32;;;;;;;8.45;5.25;;;;;;;12.84;100.00;101408.72;5227899;28;20021;-72
2022/06/29 03:49:02;;;;;;;9.07;5.47;;;;;;;12.82;100.00;101408.91;5233488;28;20032;-71
2022/06/29 03:51:33;;;;;;;17.13;5.75;;;;;;;12.80;100.00;101410.06;5220257;28;20064;-71
2022/06/29 03:54:04;;;;;;;16.92;5.72;;;;;;;12.77;100.00;101408.56;5219674;28;20029;-71
2022/06/29 03:56:34;;;;;;;16.00;6.10;;;;;;;12.77;100.00;101410.41;5213242;28;20025;-71
2022/06/29 03:59:05;;;;;;;11.52;5.90;;;;;;;12.76;100.00;101419.50;5208456;28;20022;-71
2022/06/29 04:01:35;;;;;;;11.07;5.40;;;;;;;12.75;100.00;101415.97;5217005;28;20029;-71
2022/06/29 04:04:06;;;;;;;14.98;6.20;;;;;;;12.75;100.00;101407.03;5219877;28;20014;-72
2022/06/29 04:06:36;;;;;;;9.77;6.05;;;;;;;12.79;100.00;101413.75;5216725;28;20030;-71
2022/06/29 04:09:07;;;;;;;15.80;6.05;;;;;;;12.85;100.00;101418.47;5226649;28;20425;-71
2022/06/29 04:11:52;;;;;;;11.15;6.10;;;;;;;12.96;100.00;101415.47;5226409;28;20028;-70
2022/06/29 04:14:26;;;;;;;10.85;6.32;;;;;;;13.03;100.00;101412.94;5205782;28;20053;-70
2022/06/29 04:16:57;;;;;;;9.98;5.47;;;;;;;13.10;100.00;101416.63;5218932;28;20033;-71
2022/06/29 04:19:28;;;;;;;9.07;5.20;;;;;;;13.14;100.00;101417.97;5211271;28;20021;-72
2022/06/29 04:21:58;;;;;;;15.02;5.70;;;;;;;13.20;100.00;101406.53;5218927;28;20017;-71
2022/06/29 04:24:29;;;;;;;11.30;5.80;;;;;;;13.28;100.00;101411.94;5205335;28;20545;-72
2022/06/29 04:26:59;;;;;;;8.07;6.03;;;;;;;13.35;100.00;101409.41;5223760;28;20055;-72
2022/06/29 04:29:30;;;;;;;12.65;6.22;;;;;;;13.41;100.00;101406.88;5211348;28;20029;-72
2022/06/29 04:32:00;;;;;;;7.28;4.75;;;;;;;13.51;100.00;101408.56;5218625;28;20032;-72
2022/06/29 04:34:31;;;;;;;8.57;5.25;;;;;;;13.59;100.00;101416.59;5218852;28;20098;-72
2022/06/29 04:37:02;;;;;;;11.13;4.90;;;;;;;13.68;100.00;101411.03;5218233;28;20032;-71
2022/06/29 04:39:32;;;;;;;11.23;6.10;;;;;;;13.78;100.00;101407.28;5218839;28;20025;-71
2022/06/29 04:42:03;;;;;;;16.20;6.00;;;;;;;13.82;100.00;101408.63;5205474;28;20031;-71
2022/06/29 04:44:34;;;;;;;8.40;6.10;;;;;;;13.81;100.00;101412.34;5205185;28;20091;-72
2022/06/29 04:47:04;;;;;;;5.82;4.80;;;;;;;13.79;100.00;101403.56;5214821;28;20016;-71
2022/06/29 04:49:35;;;;;;;11.75;5.40;;;;;;;13.78;100.00;101404.59;5208241;28;20083;-72
2022/06/29 04:52:05;;;;;;;11.07;5.75;;;;;;;13.79;100.00;101414.38;5216737;28;20021;-72
2022/06/29 04:54:36;;;;;;;16.98;6.60;;;;;;;13.81;100.00;101409.66;5220211;28;20025;-72
2022/06/29 04:57:08;;;;;;;9.40;6.15;;;;;;;13.85;100.00;101413.66;5217685;28;20115;-72
2022/06/29 04:59:38;;;;;;;11.40;6.20;;;;;;;13.88;100.00;101408.78;5218581;28;20045;-72
2022/06/29 05:02:09;;;;;;;10.55;6.13;;;;;;;13.93;100.00;101403.69;5217901;28;20025;-72
2022/06/29 05:04:39;;;;;;;14.35;7.20;;;;;;;14.01;100.00;101408.22;5205014;28;20029;-71
2022/06/29 05:07:10;;;;;;;12.52;7.18;;;;;;;14.07;100.00;101401.28;5204751;28;20030;-71
2022/06/29 05:09:40;;;;;;;14.63;7.55;;;;;;;14.16;100.00;101402.94;5205219;28;20029;-71
2022/06/29 05:12:11;;;;;;;20.70;8.18;;;;;;;14.22;100.00;101403.06;5211135;28;20116;-71
2022/06/29 05:14:41;;;;;;;16.38;7.72;;;;;;;14.33;100.00;101409.91;5213646;28;20454;-72
2022/06/29 05:17:12;;;;;;;13.52;7.55;;;;;;;14.44;100.00;101417.59;5211809;28;20398;-73
2022/06/29 05:19:42;;;;;;;10.60;6.57;;;;;;;14.55;100.00;101413.69;5213413;28;20028;-72
2022/06/29 05:22:13;;;;;;;22.98;7.18;;;;;;;14.65;100.00;101403.50;5207329;28;20021;-73
2022/06/29 05:24:43;;;;;;;11.00;6.13;;;;;;;14.76;100.00;101405.81;5217308;28;20047;-72
2022/06/29 05:27:14;;;;;;;13.52;5.93;;;;;;;14.92;100.00;101404.84;5211721;28;20025;-72
2022/06/29 05:29:44;;;;;;;15.48;7.60;;;;;;;15.03;100.00;101404.41;5221523;28;20488;-71
2022/06/29 05:32:15;;;;;;;9.23;6.15;;;;;;;15.19;100.00;101398.00;5204227;28;20036;-71
2022/06/29 05:34:47;;;;;;;9.05;5.65;;;;;;;15.33;100.00;101395.53;5219689;28;20494;-70
2022/06/29 05:37:17;;;;;;;11.25;5.70;;;;;;;15.44;100.00;101387.78;5215159;28;20030;-71
2022/06/29 05:39:48;;;;;;;9.07;5.38;;;;;;;15.60;100.00;101396.75;5217480;28;20032;-71
2022/06/29 05:42:19;;;;;;;9.30;5.95;;;;;;;15.74;100.00;101383.25;5215458;28;20021;-70
2022/06/29 05:44:49;;;;;;;12.35;5.32;;;;;;;15.89;100.00;101385.97;5206452;28;20040;-71
2022/06/29 05:47:20;;;;;;;10.82;5.50;;;;;;;16.07;100.00;101387.44;5216941;28;20033;-71
2022/06/29 05:49:50;;;;;;;10.07;5.75;;;;;;;16.24;100.00;101387.03;5211006;28;20025;-71
2022/06/29 05:52:21;;;;;;;12.02;5.60;;;;;;;16.44;100.00;101389.13;5211402;28;20021;-71
2022/06/29 05:54:51;;;;;;;8.20;4.78;;;;;;;16.60;100.00;101383.44;5224614;28;20025;-71
2022/06/29 05:57:22;;;;;;;15.57;5.25;;;;;;;16.82;100.00;101382.47;5211142;28;20056;-72
2022/06/29 05:59:52;;;;;;;10.82;5.30;;;;;;;17.04;100.00;101385.16;5215046;28;20031;-71
2022/06/29 06:02:23;;;;;;;8.73;5.15;;;;;;;17.35;100.00;101391.03;5203591;28;20025;-71
2022/06/29 06:04:53;;;;;;;9.60;4.90;;;;;;;17.87;100.00;101391.56;5214389;28;20096;-71
2022/06/29 06:07:24;;;;;;;7.00;4.30;;;;;;;18.74;100.00;101381.88;5207507;28;20025;-71
2022/06/29 06:09:54;;;;;;;9.05;4.05;;;;;;;19.73;100.00;101386.41;5207487;28;20029;-72
2022/06/29 06:12:25;;;;;;;5.18;3.20;;;;;;;20.72;100.00;101391.44;5215499;28;20021;-72
2022/06/29 06:14:59;;;;;;;6.68;2.90;;;;;;;21.49;100.00;101375.72;5213214;28;20021;-72
2022/06/29 06:17:29;;;;;;;7.53;3.38;;;;;;;22.02;100.00;101391.50;5222279;28;20503;-72
2022/06/29 06:20:01;;;;;;;9.27;3.00;;;;;;;22.63;100.00;101395.13;5214251;28;20048;-72
2022/06/29 06:22:32;;;;;;;9.68;2.83;;;;;;;22.85;100.00;101390.81;5208511;28;20017;-72
2022/06/29 06:25:03;;;;;;;6.82;3.50;;;;;;;23.02;100.00;101406.56;5221675;28;20393;-72
2022/06/29 06:27:34;;;;;;;7.22;2.88;;;;;;;23.16;100.00;101402.53;5213288;28;20048;-72
2022/06/29 06:30:05;;;;;;;7.32;2.78;;;;;;;23.80;100.00;101406.25;5216859;28;20029;-72
2022/06/29 06:32:35;;;;;;;6.75;2.35;;;;;;;23.96;100.00;101402.75;5221691;28;20025;-72
2022/06/29 06:35:07;;;;;;;5.63;2.63;;;;;;;24.33;100.00;101401.56;5203854;28;20379;-72
2022/06/29 06:37:37;;;;;;;7.97;2.47;;;;;;;24.02;100.00;101403.69;5199869;28;20060;-70
2022/06/29 06:42:58;;;;;;;6.78;2.45;;;;;;;24.23;100.00;101402.19;5219628;28;20429;-70
2022/06/29 06:45:29;;;;;;;5.78;2.20;;;;;;;24.56;100.00;101398.78;5210458;28;20017;-71
2022/06/29 06:47:59;;;;;;;7.47;2.50;;;;;;;24.98;100.00;101401.97;5233382;28;20110;-71
2022/06/29 06:50:30;;;;;;;5.82;2.33;;;;;;;25.16;100.00;101398.19;5210764;28;20537;-70
2022/06/29 06:53:02;;;;;;;5.43;2.08;;;;;;;25.29;100.00;101389.59;5214157;28;20474;-70
2022/06/29 06:55:32;;;;;;;5.95;2.70;;;;;;;25.41;100.00;101388.69;5212371;28;20049;-70
2022/06/29 06:58:03;;;;;;;7.03;2.13;;;;;;;25.24;100.00;101394.19;5215874;28;20131;-71
2022/06/29 07:00:33;;;;;;;4.70;2.50;;;;;;;25.16;100.00;101391.88;5199069;28;20018;-71
2022/06/29 07:03:04;;;;;;;6.47;1.90;;;;;;;25.36;100.00;101391.38;5205679;28;20394;-71
2022/06/29 07:05:35;;;;;;;5.85;2.40;;;;;;;25.77;100.00;101388.13;5221254;28;20025;-70
2022/06/29 07:08:06;;;;;;;7.30;2.10;;;;;;;26.21;100.00;101388.16;5211052;28;20052;-71
2022/06/29 07:10:36;;;;;;;3.45;2.17;;;;;;;26.43;100.00;101387.31;5206440;28;20474;-70
2022/06/29 07:13:07;;;;;;;5.97;2.47;;;;;;;26.51;97.22;101384.94;5213586;28;20108;-70
2022/06/29 07:15:38;;;;;;;6.93;2.42;;;;;;;26.59;99.42;101392.69;5216188;28;20083;-71
2022/06/29 07:18:08;;;;;;;4.93;1.75;;;;;;;26.73;100.00;101389.53;5215813;28;20025;-70
2022/06/29 07:20:39;;;;;;;4.80;1.98;;;;;;;26.79;100.00;101385.72;5216559;28;20506;-70
2022/06/29 07:23:09;;;;;;;5.38;2.10;;;;;;;26.51;100.00;101389.59;5221409;28;20032;-70
2022/06/29 07:25:40;;;;;;;7.10;2.00;;;;;;;26.56;100.00;101386.91;5210854;28;20280;-70
2022/06/29 07:28:11;;;;;;;3.55;2.22;;;;;;;26.83;97.46;101386.88;5221102;28;20499;-70
2022/06/29 07:30:41;;;;;;;11.15;2.55;;;;;;;27.10;96.73;101386.84;5204323;28;20021;-70
2022/06/29 07:33:12;;;;;;;9.27;2.10;;;;;;;27.40;88.98;101391.75;5219833;28;20032;-71
2022/06/29 07:35:42;;;;;;;7.47;2.25;;;;;;;26.99;95.09;101391.41;5214714;28;20014;-70
2022/06/29 07:38:13;;;;;;;7.95;2.33;;;;;;;27.38;91.30;101385.69;5216789;28;20033;-71
2022/06/29 07:40:43;;;;;;;6.82;2.53;;;;;;;27.50;96.60;101383.53;5215236;28;20284;-70
2022/06/29 07:43:14;;;;;;;4.50;2.05;;;;;;;27.55;97.28;101380.81;5211087;28;20027;-70
2022/06/29 07:45:44;;;;;;;7.57;1.98;;;;;;;27.79;92.60;101377.66;5224474;28;20075;-70
2022/06/29 07:48:15;;;;;;;3.47;1.95;;;;;;;27.49;85.27;101383.81;5213641;28;20030;-70
2022/06/29 07:50:45;;;;;;;5.05;2.20;;;;;;;27.47;90.83;101383.25;5203274;28;20104;-70
2022/06/29 07:53:16;;;;;;;5.22;1.92;;;;;;;27.68;89.14;101371.25;5211345;28;20021;-70
2022/06/29 07:55:47;;;;;;;10.77;2.25;;;;;;;27.77;89.65;101371.59;5210825;28;20036;-71
2022/06/29 07:58:17;;;;;;;3.70;1.88;;;;;;;27.81;92.71;101376.31;5217686;28;20052;-71
2022/06/29 08:00:48;;;;;;;4.65;1.83;;;;;;;28.17;88.01;101365.41;5223941;28;20446;-70
2022/06/29 08:03:18;;;;;;;10.15;1.80;;;;;;;28.39;90.61;101368.81;5223392;28;20028;-70
2022/06/29 08:05:49;;;;;;;5.35;1.70;;;;;;;28.51;84.58;101371.28;5223912;28;20033;-71
2022/06/29 08:08:19;;;;;;;3.20;1.67;;;;;;;28.39;80.88;101377.06;5211701;28;20032;-70
2022/06/29 08:10:50;;;;;;;6.70;1.80;;;;;;;28.70;84.83;101370.78;5207332;28;20116;-71
2022/06/29 08:13:20;;;;;;;6.00;1.77;;;;;;;28.81;79.54;101364.97;5211537;28;20486;-70
2022/06/29 08:15:51;;;;;;;4.07;1.80;;;;;;;28.91;82.15;101370.50;5208787;28;20124;-70
2022/06/29 08:18:21;;;;;;;4.47;1.80;;;;;;;28.97;81.74;101363.09;5224071;28;20086;-71
2022/06/29 08:20:52;;;;;;;3.75;1.80;;;;;;;29.64;80.28;101361.88;5207684;28;20029;-71
2022/06/29 08:23:22;;;;;;;5.68;1.70;;;;;;;29.43;75.63;101368.56;5218116;28;20083;-71
2022/06/29 08:25:53;;;;;;;6.70;1.42;;;;;;;28.88;73.24;101362.78;5213751;28;20021;-71
2022/06/29 08:28:25;;;;;;;10.02;2.42;;;;;;;29.06;70.80;101375.22;5213186;28;20369;-71
2022/06/29 08:30:55;;;;;;;3.88;1.50;;;;;;;29.29;71.14;101362.78;5203189;28;20033;-70
2022/06/29 08:33:26;;;;;;;4.25;1.35;;;;;;;29.26;69.86;101360.56;5203028;28;20100;-71
2022/06/29 08:35:57;;;;;;;3.72;1.70;;;;;;;29.41;70.47;101356.94;5214624;28;20116;-71
2022/06/29 08:38:27;;;;;;;3.75;1.50;;;;;;;29.41;72.73;101366.03;5217920;28;20037;-71
2022/06/29 08:40:58;;;;;;;6.22;2.00;;;;;;;29.34;72.77;101359.16;5202788;28;20059;-70
2022/06/29 08:43:29;;;;;;;3.22;1.83;;;;;;;29.52;77.03;101364.13;5201286;28;20049;-71
2022/06/29 08:45:59;;;;;;;4.70;1.90;;;;;;;29.83;80.49;101353.81;5216852;28;20467;-71
2022/06/29 08:48:30;;;;;;;4.45;1.50;;;;;;;30.00;71.68;101366.44;5215468;28;20088;-71
2022/06/29 08:51:01;;;;;;;4.57;1.65;;;;;;;29.74;67.67;101351.91;5215864;28;20402;-71
2022/06/29 08:53:32;;;;;;;3.33;1.33;;;;;;;29.31;70.37;101354.19;5212028;28;20028;-71
2022/06/29 08:56:04;;;;;;;4.47;1.50;;;;;;;28.94;66.50;101360.03;5219683;28;20017;-71
2022/06/29 08:58:35;;;;;;;4.65;1.48;;;;;;;29.12;70.43;101352.03;5213194;28;20044;-71
2022/06/29 09:01:06;;;;;;;4.82;1.45;;;;;;;29.47;69.66;101346.69;5222727;28;20056;-71
2022/06/29 09:03:37;;;;;;;3.28;1.58;;;;;;;29.85;69.96;101346.03;5211038;28;20017;-71
2022/06/29 09:06:08;;;;;;;4.72;1.80;;;;;;;30.32;67.05;101344.69;5207929;28;20025;-71
2022/06/29 09:08:38;;;;;;;3.80;1.65;;;;;;;30.91;63.07;101342.91;5210035;28;20028;-71
2022/06/29 09:11:22;;;;;;;4.97;1.70;;;;;;;30.82;61.84;101352.94;5222590;28;20037;-71
2022/06/29 09:14:13;;;;;;;7.30;1.80;;;;;;;30.81;63.13;101342.97;5209627;28;20506;-71
2022/06/29 09:17:03;;;;;;;8.95;1.88;;;;;;;30.63;60.79;101339.78;5209632;28;20471;-71
2022/06/29 09:19:35;;;;;;;3.40;1.23;;;;;;;30.76;57.59;101343.03;5218034;28;20029;-71
2022/06/29 09:22:05;;;;;;;4.38;1.25;;;;;;;30.86;55.80;101337.41;5214795;28;20545;-71
2022/06/29 09:24:36;;;;;;;8.48;1.77;;;;;;;30.75;57.97;101344.16;5213420;28;20025;-71
2022/06/29 09:27:10;;;;;;;5.10;1.30;;;;;;;30.77;57.14;101341.91;5203195;28;20490;-71
2022/06/29 09:29:42;;;;;;;3.60;1.60;;;;;;;30.73;58.93;101335.31;5215681;28;20488;-72
2022/06/29 09:32:16;;;;;;;3.33;1.35;;;;;;;30.77;58.73;101348.28;5213967;28;20051;-71
2022/06/29 09:34:50;;;;;;;9.60;1.45;;;;;;;31.45;55.30;101328.78;5214620;28;20082;-72
2022/06/29 09:37:23;;;;;;;4.50;1.55;;;;;;;31.21;57.67;101342.59;5201581;28;20052;-71
2022/06/29 09:39:55;;;;;;;7.97;1.30;;;;;;;30.64;57.68;101335.91;5219485;28;20083;-71
2022/06/29 09:42:27;;;;;;;7.15;1.38;;;;;;;30.30;53.35;101340.56;5222129;28;20069;-71
2022/06/29 09:44:58;;;;;;;4.75;1.70;;;;;;;30.59;58.63;101335.94;5221875;28;20394;-71
2022/06/29 09:47:28;;;;;;;2.72;1.10;;;;;;;30.66;57.69;101339.19;5221378;28;20031;-71
2022/06/29 09:50:00;;;;;;;3.38;1.33;;;;;;;30.58;54.16;101339.81;5215287;28;20029;-71
2022/06/29 09:52:33;;;;;;;4.07;1.85;;;;;;;30.13;52.63;101325.19;5216125;28;20029;-71
2022/06/29 09:55:06;;;;;;;5.43;1.10;;;;;;;30.60;53.20;101337.59;5223170;28;20097;-71
2022/06/29 09:57:39;;;;;;;6.77;1.20;;;;;;;30.62;55.15;101327.03;5215166;28;20032;-71
2022/06/29 10:03:00;;;;;;;4.25;0.93;;;;;;;30.05;48.75;101325.75;5208933;28;20029;-71
2022/06/29 10:05:54;;;;;;;5.50;1.20;;;;;;;29.93;50.60;101311.44;5221476;28;20258;-71
2022/06/29 10:08:21;;;;;;;5.40;1.17;;;;;;;29.48;48.14;101323.50;5209948;28;20091;-70
2022/06/29 10:10:58;;;;;;;5.32;1.60;;;;;;;29.74;49.30;101321.50;5219969;28;20025;-71
2022/06/29 10:16:35;;;;;;;4.07;1.30;;;;;;;30.12;53.35;101323.53;5221222;28;20018;-71
2022/06/29 10:19:43;;;;;;;4.10;1.08;;;;;;;29.98;48.39;101318.88;5207901;28;20537;-70
2022/06/29 10:22:14;;;;;;;4.43;1.33;;;;;;;29.86;46.04;101317.25;5200866;28;20049;-70
2022/06/29 10:25:04;;;;;;;6.40;1.30;;;;;;;30.40;45.89;101315.59;5213609;28;20335;-70
2022/06/29 10:27:35;;;;;;;4.63;1.35;;;;;;;30.32;49.71;101322.56;5212764;28;20048;-71
2022/06/29 10:30:28;;;;;;;5.55;1.70;;;;;;;30.19;50.95;101320.44;5206868;28;20021;-70
2022/06/29 10:33:36;;;;;;;4.38;1.45;;;;;;;30.23;49.26;101317.94;5221461;28;20032;-70
2022/06/29 10:36:09;;;;;;;4.35;1.45;;;;;;;30.50;50.88;101317.47;5221507;28;20036;-70
2022/06/29 10:38:51;;;;;;;3.80;1.13;;;;;;;30.13;50.11;101313.28;5221793;28;20655;-71
2022/06/29 10:44:11;;;;;;;2.63;1.10;;;;;;;30.16;50.07;101307.16;5222009;28;20040;-70
2022/06/29 10:47:00;;;;;;;6.60;1.48;;;;;;;29.99;49.96;101296.47;5226107;28;20467;-71
2022/06/29 10:49:31;;;;;;;6.20;1.27;;;;;;;30.15;46.85;101303.56;5209340;28;20033;-70
2022/06/29 10:52:01;;;;;;;4.47;1.30;;;;;;;30.10;45.05;101295.28;5214531;28;20079;-72
2022/06/29 10:54:32;;;;;;;3.38;1.25;;;;;;;30.22;47.55;101299.66;5221585;28;20556;-73
2022/06/29 10:57:03;;;;;;;3.75;1.15;;;;;;;30.13;45.83;101300.28;5211242;28;20017;-72
2022/06/29 10:59:36;;;;;;;8.05;1.48;;;;;;;29.64;43.90;101294.72;5209818;28;20390;-73
2022/06/29 11:02:27;;;;;;;6.30;1.30;;;;;;;29.40;47.32;101297.25;5225270;28;20394;-72
2022/06/29 11:04:58;;;;;;;5.22;1.30;;;;;;;28.97;46.94;101282.16;5225164;28;20029;-72
2022/06/29 11:13:07;;;;;;;7.82;1.40;;;;;;;28.91;48.82;101284.88;5221760;28;20526;-72
2022/06/29 11:15:39;;;;;;;6.25;1.50;;;;;;;29.03;47.95;101286.59;5219831;28;20022;-72
2022/06/29 11:18:14;;;;;;;8.57;1.40;;;;;;;29.36;44.92;101291.44;5204563;28;20442;-73
2022/06/29 11:20:48;;;;;;;2.40;1.38;;;;;;;29.31;46.62;101279.59;5203513;28;20524;-72
2022/06/29 11:23:21;;;;;;;8.20;1.58;;;;;;;29.15;48.04;101278.81;5215228;28;20044;-72
2022/06/29 11:25:54;;;;;;;6.88;1.40;;;;;;;29.50;48.30;101280.63;5216277;28;20455;-72
2022/06/29 11:28:47;;;;;;;3.30;1.40;;;;;;;29.66;46.77;101279.47;5212309;28;20026;-73
2022/06/29 11:31:18;;;;;;;3.03;1.42;;;;;;;29.44;46.83;101276.25;5204125;28;20033;-72
2022/06/29 11:33:50;;;;;;;3.20;1.40;;;;;;;29.35;47.35;101277.91;5204735;28;20045;-72
2022/06/29 11:36:26;;;;;;;3.17;1.40;;;;;;;29.62;48.68;101272.03;5203962;28;20670;-73
2022/06/29 11:39:04;;;;;;;3.88;1.40;;;;;;;29.28;46.54;101278.22;5204734;28;20026;-72
2022/06/29 11:44:27;;;;;;;5.90;1.73;;;;;;;29.10;48.04;101271.34;5203259;28;20510;-72
2022/06/29 11:46:58;;;;;;;2.85;1.33;;;;;;;29.62;46.10;101261.81;5210793;28;20017;-72
2022/06/29 11:49:39;;;;;;;6.22;1.55;;;;;;;29.64;47.41;101267.88;5208352;28;20027;-72
2022/06/29 11:52:13;;;;;;;5.65;1.20;;;;;;;29.29;47.88;101262.47;5203252;28;20490;-73
2022/06/29 11:55:02;;;;;;;3.90;1.40;;;;;;;29.25;47.29;101262.19;5203499;28;20395;-72
2022/06/29 11:57:33;;;;;;;4.25;1.30;;;;;;;29.66;46.26;101260.13;5216797;28;20033;-72
2022/06/29 12:00:06;;;;;;;4.03;1.60;;;;;;;29.87;48.75;101254.47;5223668;28;20036;-72
2022/06/29 12:02:36;;;;;;;4.43;1.20;;;;;;;29.96;46.09;101261.06;5206029;28;20025;-72
2022/06/29 12:05:07;;;;;;;7.97;1.77;;;;;;;29.12;46.52;101252.59;5213918;28;20029;-72
2022/06/29 12:07:37;;;;;;;5.15;1.52;;;;;;;29.33;47.10;101256.09;5204047;28;20064;-72